LTBR/YEI METAR and TAF weather

Enter ICAO airport designator
Station Type Date Time Source
LTBR METAR 2020/07/03 14:20 UTC NOAA

LTBR 031420Z 35009KT CAVOK 32/20 Q1008 NOSIG


Station Type Date Time Source
LTBR Decoded METAR 2020/07/03 14:20 UTC NOAA

Bursa / Yenisehir, Mil-Civ, Turkey (LTBR) 40-15-19N 029-33-45E
Jul 03, 2020 - 10:20 AM EDT / 2020.07.03 1420 UTC
Wind: from the N (350 degrees) at 10 MPH (9 KT):0
Visibility: greater than 7 mile(s):0
Temperature: 89 F (32 C)
Dew Point: 68 F (20 C)
Relative Humidity: 49%
Pressure (altimeter): 29.77 in. Hg (1008 hPa)
ob: LTBR 031420Z 35009KT CAVOK 32/20 Q1008 NOSIG
cycle: 14

Station Type Date Time Source
LTBR TAF 2020/07/03 12:03 UTC NOAA

TAF LTBR 031040Z 0312/0412 35012KT CAVOK
BECMG 0315/0318 VRB02KT

Example: see airport list